createdAt,value
2022-08-29T00:00:18.478Z,12.88
2022-08-29T00:02:51.585Z,14.05
2022-08-29T00:05:24.885Z,10.68
2022-08-29T00:07:52.499Z,17.90
2022-08-29T00:10:20.419Z,8.93
2022-08-29T00:12:47.212Z,9.75
2022-08-29T00:15:14.925Z,10.98
2022-08-29T00:17:44.085Z,14.15
2022-08-29T00:20:14.415Z,11.23
2022-08-29T00:22:41.047Z,5.93
2022-08-29T00:25:08.972Z,8.95
2022-08-29T00:27:35.606Z,11.05
2022-08-29T00:30:04.265Z,9.85
2022-08-29T00:32:35.042Z,10.00
2022-08-29T00:35:26.872Z,10.77
2022-08-29T00:37:54.739Z,9.60
2022-08-29T00:40:32.179Z,6.00
2022-08-29T00:42:59.230Z,7.60
2022-08-29T00:45:26.595Z,9.15
2022-08-29T00:48:08.520Z,11.38
2022-08-29T00:50:40.633Z,12.43
2022-08-29T00:53:19.708Z,9.25
2022-08-29T00:55:50.409Z,13.70
2022-08-29T00:58:30.893Z,11.43
2022-08-29T01:00:58.252Z,7.70
2022-08-29T01:03:26.301Z,9.73
2022-08-29T01:05:53.344Z,7.10
2022-08-29T01:08:20.001Z,5.80
2022-08-29T01:11:06.117Z,8.23
2022-08-29T01:13:40.431Z,9.82
2022-08-29T01:16:08.620Z,6.38
2022-08-29T01:18:37.725Z,14.32
2022-08-29T01:21:35.309Z,7.57
2022-08-29T01:24:39.219Z,7.88
2022-08-29T01:27:06.380Z,9.23
2022-08-29T01:29:34.570Z,10.50
2022-08-29T01:32:01.985Z,10.30
2022-08-29T01:34:29.559Z,7.25
2022-08-29T01:37:00.208Z,9.93
2022-08-29T01:39:38.519Z,11.95
2022-08-29T01:42:20.762Z,13.45
2022-08-29T01:44:55.495Z,4.35
2022-08-29T01:47:25.139Z,10.30
2022-08-29T01:49:52.284Z,9.52
2022-08-29T01:52:19.577Z,15.98
2022-08-29T01:54:46.937Z,8.15
2022-08-29T01:57:15.269Z,10.40
2022-08-29T01:59:42.820Z,10.70
2022-08-29T02:02:31.092Z,15.68
2022-08-29T02:04:58.576Z,10.75
2022-08-29T02:07:26.378Z,12.77
2022-08-29T02:09:53.920Z,11.27
2022-08-29T02:12:21.290Z,10.40
2022-08-29T02:14:49.244Z,12.65
2022-08-29T02:17:15.831Z,7.80
2022-08-29T02:19:43.467Z,8.15
2022-08-29T02:22:10.554Z,9.73
2022-08-29T02:24:37.308Z,12.85
2022-08-29T02:27:04.219Z,10.43
2022-08-29T02:29:37.810Z,8.50
2022-08-29T02:32:11.869Z,10.88
2022-08-29T02:34:38.971Z,8.38
2022-08-29T02:37:06.194Z,13.27
2022-08-29T02:39:33.477Z,8.90
2022-08-29T02:42:00.087Z,10.07
2022-08-29T02:44:26.719Z,11.98
2022-08-29T02:46:53.376Z,8.32
2022-08-29T02:49:20.079Z,7.75
2022-08-29T02:51:48.231Z,8.10
2022-08-29T02:54:14.969Z,15.73
2022-08-29T02:56:41.943Z,9.43
2022-08-29T02:59:08.747Z,8.50
2022-08-29T03:01:38.426Z,8.00
2022-08-29T03:04:05.719Z,13.07
2022-08-29T03:06:32.388Z,8.73
2022-08-29T03:08:59.177Z,7.35
2022-08-29T03:11:27.000Z,7.32
2022-08-29T03:13:57.847Z,7.40
2022-08-29T03:16:25.743Z,5.63
2022-08-29T03:18:52.597Z,8.90
2022-08-29T03:21:22.468Z,7.57
2022-08-29T03:23:50.292Z,10.73
2022-08-29T03:26:17.731Z,9.57
2022-08-29T03:28:44.504Z,10.43
2022-08-29T03:31:11.206Z,9.57
2022-08-29T03:33:38.865Z,9.48
2022-08-29T03:36:13.815Z,11.98
2022-08-29T03:38:42.475Z,8.30
2022-08-29T03:41:09.696Z,10.02
2022-08-29T03:43:36.567Z,9.02
2022-08-29T03:46:03.312Z,11.20
2022-08-29T03:48:29.979Z,12.23
2022-08-29T03:50:56.767Z,12.50
2022-08-29T03:53:24.051Z,7.88
2022-08-29T03:55:50.725Z,13.32
2022-08-29T03:58:17.484Z,11.82
2022-08-29T04:00:46.693Z,13.00
2022-08-29T04:03:13.552Z,9.27
2022-08-29T04:05:41.113Z,12.75
2022-08-29T04:08:08.381Z,10.30
2022-08-29T04:10:37.834Z,15.15
2022-08-29T04:13:08.527Z,10.63
2022-08-29T04:15:36.053Z,11.48
2022-08-29T04:18:06.902Z,11.43
2022-08-29T04:20:39.056Z,11.85
2022-08-29T04:23:06.290Z,15.60
2022-08-29T04:25:37.305Z,8.35
2022-08-29T04:28:06.757Z,13.45
2022-08-29T04:30:34.824Z,11.65
2022-08-29T04:33:01.848Z,11.88
2022-08-29T04:35:28.853Z,11.38
2022-08-29T04:37:55.591Z,9.38
2022-08-29T04:40:22.929Z,7.57
2022-08-29T04:42:52.264Z,9.73
2022-08-29T04:45:21.338Z,11.10
2022-08-29T04:47:48.325Z,12.93
2022-08-29T04:50:18.214Z,7.45
2022-08-29T04:52:47.179Z,8.70
2022-08-29T04:55:19.446Z,10.68
2022-08-29T04:57:50.527Z,9.15
2022-08-29T05:00:23.355Z,8.32
2022-08-29T05:02:50.038Z,9.57
2022-08-29T05:05:19.908Z,6.63
2022-08-29T05:07:46.572Z,9.20
2022-08-29T05:10:17.261Z,6.55
2022-08-29T05:12:44.632Z,7.57
2022-08-29T05:15:12.568Z,6.53
2022-08-29T05:17:39.309Z,8.10
2022-08-29T05:20:07.708Z,8.18
2022-08-29T05:22:34.858Z,5.15
2022-08-29T05:25:02.840Z,5.80
2022-08-29T05:27:29.776Z,5.97
2022-08-29T05:29:56.400Z,6.38
2022-08-29T05:32:22.994Z,7.07
2022-08-29T05:34:49.905Z,5.38
2022-08-29T05:37:22.046Z,4.55
2022-08-29T05:39:49.688Z,5.03
2022-08-29T05:42:17.737Z,4.65
2022-08-29T05:44:44.556Z,5.63
2022-08-29T05:47:13.632Z,4.50
2022-08-29T05:49:42.896Z,6.78
2022-08-29T05:52:10.479Z,5.38
2022-08-29T05:54:39.725Z,5.22
2022-08-29T05:57:07.796Z,4.20
2022-08-29T05:59:35.325Z,6.10
2022-08-29T06:02:02.272Z,5.60
2022-08-29T06:04:30.773Z,6.03
2022-08-29T06:06:57.424Z,7.00
2022-08-29T06:09:24.080Z,4.07
2022-08-29T06:11:53.076Z,4.40
2022-08-29T06:14:19.783Z,4.88
2022-08-29T06:16:46.411Z,4.35
2022-08-29T06:19:13.460Z,4.63
2022-08-29T06:21:40.181Z,4.93
2022-08-29T06:24:07.387Z,4.28
2022-08-29T06:26:34.732Z,5.60
2022-08-29T06:29:05.404Z,3.72
2022-08-29T06:31:32.192Z,4.82
2022-08-29T06:34:01.209Z,6.55
2022-08-29T06:36:29.650Z,4.40
2022-08-29T06:38:58.899Z,4.25
2022-08-29T06:41:26.869Z,4.18
2022-08-29T06:43:56.670Z,3.63
2022-08-29T06:46:32.020Z,1.95
2022-08-29T06:49:00.691Z,7.38
2022-08-29T06:51:32.669Z,3.13
2022-08-29T06:54:04.207Z,2.92
2022-08-29T06:56:36.725Z,4.50
2022-08-29T06:59:04.215Z,4.60
2022-08-29T07:01:31.307Z,6.75
2022-08-29T07:04:00.325Z,4.55
2022-08-29T07:06:27.713Z,4.18
2022-08-29T07:08:55.787Z,5.72
2022-08-29T07:11:25.943Z,2.70
2022-08-29T07:13:52.846Z,3.03
2022-08-29T07:16:19.832Z,4.82
2022-08-29T07:18:47.063Z,2.90
2022-08-29T07:21:20.357Z,2.63
2022-08-29T07:23:47.564Z,2.50
2022-08-29T07:26:18.126Z,2.35
2022-08-29T07:28:47.485Z,2.55
2022-08-29T07:31:14.306Z,3.25
2022-08-29T07:33:41.765Z,2.05
2022-08-29T07:36:09.197Z,4.28
2022-08-29T07:38:36.489Z,1.67
2022-08-29T07:41:07.881Z,2.78
2022-08-29T07:43:35.818Z,1.75
2022-08-29T07:46:11.204Z,3.83
2022-08-29T07:48:38.700Z,5.18
2022-08-29T07:51:10.732Z,2.72
2022-08-29T07:53:38.129Z,1.80
2022-08-29T07:56:09.904Z,3.88
2022-08-29T07:58:36.940Z,2.03
2022-08-29T08:01:04.601Z,2.53
2022-08-29T08:03:32.087Z,1.65
2022-08-29T08:05:59.574Z,2.33
2022-08-29T08:08:26.591Z,2.40
2022-08-29T08:10:53.512Z,3.17
2022-08-29T08:13:20.476Z,2.50
2022-08-29T08:15:48.777Z,3.10
2022-08-29T08:18:16.350Z,1.75
2022-08-29T08:20:48.367Z,3.83
2022-08-29T08:23:19.026Z,2.63
2022-08-29T08:25:45.923Z,3.75
2022-08-29T08:28:14.072Z,2.20
2022-08-29T08:30:41.316Z,3.30
2022-08-29T08:33:08.005Z,4.30
2022-08-29T08:35:35.915Z,1.80
2022-08-29T08:38:02.904Z,3.75
2022-08-29T08:40:32.015Z,3.10
2022-08-29T08:43:02.614Z,2.67
2022-08-29T08:45:43.868Z,2.38
2022-08-29T08:48:20.776Z,2.95
2022-08-29T08:50:56.989Z,2.05
2022-08-29T08:53:34.736Z,2.85
2022-08-29T08:56:11.330Z,2.47
2022-08-29T08:58:59.504Z,3.03
2022-08-29T09:01:32.468Z,1.17
2022-08-29T09:04:23.784Z,1.42
2022-08-29T09:07:14.803Z,1.98
2022-08-29T09:09:57.512Z,1.27
2022-08-29T09:13:00.644Z,1.38
2022-08-29T09:15:46.960Z,0.93
2022-08-29T09:18:32.304Z,1.08
2022-08-29T09:21:09.889Z,1.50
2022-08-29T09:23:59.608Z,0.68
2022-08-29T09:26:29.428Z,2.13
2022-08-29T09:28:57.135Z,1.15
2022-08-29T09:31:32.420Z,3.22
2022-08-29T09:34:05.828Z,0.73
2022-08-29T09:36:48.635Z,1.65
2022-08-29T09:39:17.575Z,1.90
2022-08-29T09:41:47.592Z,1.83
2022-08-29T09:44:21.591Z,2.20
2022-08-29T09:47:19.224Z,0.75
2022-08-29T09:50:06.984Z,1.83
2022-08-29T09:52:35.200Z,1.00
2022-08-29T09:55:24.377Z,1.25
2022-08-29T09:57:59.528Z,0.93
2022-08-29T10:00:30.184Z,1.80
2022-08-29T10:03:00.279Z,4.57
2022-08-29T10:05:41.397Z,2.20
2022-08-29T10:08:24.621Z,2.65
2022-08-29T10:10:54.632Z,1.30
2022-08-29T10:13:47.122Z,1.45
2022-08-29T10:16:29.667Z,0.73
2022-08-29T10:19:02.319Z,0.88
2022-08-29T10:21:58.669Z,0.93
2022-08-29T10:24:54.980Z,1.13
2022-08-29T10:27:43.562Z,1.17
2022-08-29T10:30:12.280Z,1.10
2022-08-29T10:32:50.766Z,0.95
2022-08-29T10:35:28.056Z,1.17
2022-08-29T10:38:05.712Z,3.15
2022-08-29T10:40:49.739Z,1.27
2022-08-29T10:43:21.924Z,1.55
2022-08-29T10:46:12.696Z,0.50
2022-08-29T10:49:06.283Z,1.40
2022-08-29T10:51:38.877Z,1.33
2022-08-29T10:54:19.991Z,1.13
2022-08-29T10:56:49.141Z,0.98
2022-08-29T10:59:44.475Z,1.27
2022-08-29T11:02:32.616Z,3.45
2022-08-29T11:05:02.799Z,3.50
2022-08-29T11:07:36.543Z,3.08
2022-08-29T11:10:13.290Z,1.25
2022-08-29T11:12:50.415Z,1.27
2022-08-29T11:15:24.244Z,3.25
2022-08-29T11:18:06.253Z,3.35
2022-08-29T11:20:39.072Z,0.93
2022-08-29T11:23:16.569Z,1.85
2022-08-29T11:25:44.456Z,1.13
2022-08-29T11:28:26.388Z,1.80
2022-08-29T11:31:33.442Z,0.98
2022-08-29T11:34:19.963Z,2.65
2022-08-29T11:37:05.553Z,8.25
2022-08-29T11:39:45.659Z,1.30
2022-08-29T11:42:49.870Z,2.55
2022-08-29T11:45:06.924Z,1.27
2022-08-29T11:47:41.088Z,2.55
2022-08-29T11:50:19.264Z,1.85
2022-08-29T11:52:56.220Z,1.52
2022-08-29T11:55:41.972Z,1.67
2022-08-29T11:58:28.907Z,1.13
2022-08-29T12:00:57.330Z,1.50
2022-08-29T12:03:33.980Z,1.63
2022-08-29T12:06:27.959Z,1.00
2022-08-29T12:09:47.296Z,1.42
2022-08-29T12:12:20.115Z,4.38
2022-08-29T12:14:50.018Z,2.08
2022-08-29T12:17:16.593Z,2.13
2022-08-29T12:19:49.211Z,2.05
2022-08-29T12:25:30.008Z,1.55
2022-08-29T12:28:06.032Z,2.28
2022-08-29T12:30:42.377Z,3.00
2022-08-29T12:33:36.798Z,4.43
2022-08-29T12:36:09.377Z,1.23
2022-08-29T12:38:46.003Z,1.67
2022-08-29T12:41:26.419Z,1.50
2022-08-29T12:43:58.107Z,2.13
2022-08-29T12:46:30.889Z,0.50
2022-08-29T12:49:14.663Z,3.05
2022-08-29T12:51:43.381Z,1.83
2022-08-29T12:54:12.068Z,1.23
2022-08-29T12:56:47.279Z,1.20
2022-08-29T12:59:21.245Z,2.63
2022-08-29T13:01:54.416Z,1.95
2022-08-29T13:04:32.389Z,3.15
2022-08-29T13:07:05.773Z,1.90
2022-08-29T13:09:41.504Z,1.73
2022-08-29T13:12:27.697Z,2.35
2022-08-29T13:15:06.856Z,2.33
2022-08-29T13:17:36.588Z,2.42
2022-08-29T13:20:40.965Z,1.45
2022-08-29T13:23:16.261Z,3.60
2022-08-29T13:26:05.371Z,1.70
2022-08-29T13:28:58.532Z,1.50
2022-08-29T13:31:35.929Z,1.10
2022-08-29T13:34:22.930Z,0.90
2022-08-29T13:37:28.372Z,1.77
2022-08-29T13:39:56.625Z,0.70
2022-08-29T13:42:28.297Z,1.50
2022-08-29T13:45:07.930Z,0.80
2022-08-29T13:47:55.387Z,1.17
2022-08-29T13:50:23.172Z,0.90
2022-08-29T13:52:54.808Z,1.00
2022-08-29T13:55:22.027Z,1.20
2022-08-29T13:57:53.197Z,0.98
2022-08-29T14:00:32.465Z,1.58
2022-08-29T14:03:03.225Z,0.40
2022-08-29T14:05:30.121Z,0.45
2022-08-29T14:07:57.079Z,1.45
2022-08-29T14:10:24.165Z,2.15
2022-08-29T14:12:50.828Z,1.60
2022-08-29T14:15:18.100Z,1.25
2022-08-29T14:17:46.982Z,0.77
2022-08-29T14:20:15.216Z,2.85
2022-08-29T14:22:42.159Z,1.17
2022-08-29T14:25:10.436Z,3.30
2022-08-29T14:27:38.348Z,7.32
2022-08-29T14:30:10.306Z,1.35
2022-08-29T14:32:37.328Z,0.90
2022-08-29T14:35:05.493Z,2.33
2022-08-29T14:37:32.403Z,0.75
2022-08-29T14:39:59.067Z,1.33
2022-08-29T14:42:25.783Z,1.30
2022-08-29T14:44:52.555Z,1.52
2022-08-29T14:47:19.224Z,3.85
2022-08-29T14:49:45.809Z,4.68
2022-08-29T14:52:14.948Z,4.40
2022-08-29T14:54:43.099Z,1.10
2022-08-29T14:57:10.917Z,2.05
2022-08-29T14:59:39.626Z,1.58
2022-08-29T15:02:07.946Z,1.73
2022-08-29T15:04:36.608Z,1.15
2022-08-29T15:07:09.609Z,1.75
2022-08-29T15:09:36.503Z,1.85
2022-08-29T15:12:03.653Z,1.10
2022-08-29T15:14:31.199Z,0.73
2022-08-29T15:16:57.817Z,1.80
2022-08-29T15:20:04.104Z,0.77
2022-08-29T15:22:12.325Z,1.05
2022-08-29T15:24:39.276Z,4.10
2022-08-29T15:27:06.952Z,0.75
2022-08-29T15:29:34.761Z,1.45
2022-08-29T15:32:01.456Z,1.15
2022-08-29T15:34:28.947Z,2.70
2022-08-29T15:36:56.328Z,1.30
2022-08-29T15:39:23.533Z,1.10
2022-08-29T15:41:50.252Z,2.15
2022-08-29T15:44:16.884Z,0.82
2022-08-29T15:46:50.941Z,1.08
2022-08-29T15:49:19.419Z,4.53
2022-08-29T15:51:46.814Z,3.33
2022-08-29T15:54:16.495Z,1.27
2022-08-29T15:56:43.879Z,1.95
2022-08-29T15:59:12.933Z,1.00
2022-08-29T16:01:45.066Z,1.83
2022-08-29T16:04:13.669Z,0.93
2022-08-29T16:06:40.800Z,0.70
2022-08-29T16:09:15.271Z,6.63
2022-08-29T16:11:47.259Z,0.85
2022-08-29T16:17:03.918Z,0.38
2022-08-29T16:19:30.615Z,0.77
2022-08-29T16:21:59.794Z,0.90
2022-08-29T16:24:28.788Z,1.70
2022-08-29T16:26:55.543Z,1.42
2022-08-29T16:29:26.772Z,1.58
2022-08-29T16:31:58.374Z,0.77
2022-08-29T16:34:26.646Z,1.35
2022-08-29T16:36:57.390Z,1.70
2022-08-29T16:39:24.363Z,0.75
2022-08-29T16:41:51.247Z,5.13
2022-08-29T16:44:17.923Z,2.15
2022-08-29T16:46:44.558Z,0.82
2022-08-29T16:49:11.353Z,1.15
2022-08-29T16:51:38.252Z,1.40
2022-08-29T16:54:05.370Z,2.00
2022-08-29T16:56:32.815Z,1.20
2022-08-29T16:59:00.037Z,0.50
2022-08-29T17:01:30.040Z,0.93
2022-08-29T17:03:57.096Z,2.92
2022-08-29T17:06:23.757Z,2.25
2022-08-29T17:08:50.389Z,1.35
2022-08-29T17:11:19.083Z,2.35
2022-08-29T17:13:45.957Z,4.63
2022-08-29T17:16:12.987Z,4.88
2022-08-29T17:18:40.249Z,1.70
2022-08-29T17:21:08.093Z,2.28
2022-08-29T17:23:38.693Z,2.90
2022-08-29T17:26:08.639Z,1.73
2022-08-29T17:28:38.099Z,1.63
2022-08-29T17:31:05.555Z,1.05
2022-08-29T17:33:32.924Z,1.63
2022-08-29T17:35:59.623Z,0.80
2022-08-29T17:38:26.868Z,1.13
2022-08-29T17:40:58.563Z,3.85
2022-08-29T17:43:27.312Z,1.38
2022-08-29T17:45:54.473Z,2.35
2022-08-29T17:48:21.432Z,1.48
2022-08-29T17:50:49.377Z,0.38
2022-08-29T17:53:16.599Z,3.50
2022-08-29T17:55:43.340Z,4.10
2022-08-29T17:58:09.923Z,1.08
2022-08-29T18:00:37.064Z,1.75
2022-08-29T18:03:04.241Z,2.45
2022-08-29T18:05:30.925Z,0.82
2022-08-29T18:07:57.600Z,7.53
2022-08-29T18:10:25.124Z,2.40
2022-08-29T18:12:51.987Z,1.08
2022-08-29T18:15:18.842Z,0.95
2022-08-29T18:17:45.677Z,3.58
2022-08-29T18:20:15.199Z,0.82
2022-08-29T18:22:43.227Z,1.95
2022-08-29T18:25:11.450Z,1.13
2022-08-29T18:27:43.664Z,3.38
2022-08-29T18:30:13.462Z,1.85
2022-08-29T18:32:41.251Z,2.53
2022-08-29T18:35:08.943Z,3.00
2022-08-29T18:37:35.843Z,2.28
2022-08-29T18:40:04.950Z,1.77
2022-08-29T18:42:40.543Z,2.83
2022-08-29T18:45:09.371Z,2.05
2022-08-29T18:47:36.369Z,2.78
2022-08-29T18:50:32.932Z,1.13
2022-08-29T18:53:01.944Z,1.30
2022-08-29T18:55:28.595Z,1.63
2022-08-29T18:57:55.890Z,2.53
2022-08-29T19:00:24.857Z,2.47
2022-08-29T19:02:53.436Z,0.63
2022-08-29T19:05:20.612Z,0.95
2022-08-29T19:07:47.249Z,4.13
2022-08-29T19:10:13.993Z,2.55
2022-08-29T19:12:40.707Z,2.63
2022-08-29T19:15:08.947Z,2.03
2022-08-29T19:17:35.745Z,1.52
2022-08-29T19:20:21.225Z,2.90
2022-08-29T19:22:47.815Z,3.55
2022-08-29T19:25:14.398Z,3.80
2022-08-29T19:27:43.996Z,2.20
2022-08-29T19:30:13.284Z,1.30
2022-08-29T19:32:40.098Z,2.75
2022-08-29T19:35:07.621Z,2.10
2022-08-29T19:37:34.412Z,2.85
2022-08-29T19:40:02.026Z,2.22
2022-08-29T19:42:28.645Z,4.82
2022-08-29T19:44:55.323Z,2.28
2022-08-29T19:47:23.324Z,1.58
2022-08-29T19:49:51.599Z,1.38
2022-08-29T19:52:18.583Z,0.88
2022-08-29T19:54:45.311Z,2.38
2022-08-29T19:57:14.814Z,0.90
2022-08-29T19:59:42.414Z,1.58
2022-08-29T20:02:10.672Z,1.02
2022-08-29T20:04:38.269Z,1.05
2022-08-29T20:07:05.271Z,4.00
2022-08-29T20:09:31.953Z,1.52
2022-08-29T20:11:59.074Z,1.17
2022-08-29T20:14:25.704Z,0.82
2022-08-29T20:16:52.733Z,1.67
2022-08-29T20:19:21.230Z,1.10
2022-08-29T20:21:48.745Z,1.92
2022-08-29T20:24:16.508Z,4.22
2022-08-29T20:26:44.289Z,2.15
2022-08-29T20:29:12.532Z,2.67
2022-08-29T20:31:40.064Z,3.08
2022-08-29T20:34:06.743Z,0.73
2022-08-29T20:36:52.113Z,0.55
2022-08-29T20:39:20.666Z,2.35
2022-08-29T20:41:55.353Z,4.10
2022-08-29T20:44:23.778Z,4.45
2022-08-29T20:46:51.905Z,3.75
2022-08-29T20:49:21.997Z,1.08
2022-08-29T20:51:50.100Z,2.70
2022-08-29T20:54:20.403Z,2.35
2022-08-29T20:56:48.437Z,1.05
2022-08-29T20:59:15.313Z,1.02
2022-08-29T21:01:43.200Z,2.38
2022-08-29T21:04:30.658Z,4.00
2022-08-29T21:07:04.157Z,1.45
2022-08-29T21:09:31.415Z,0.75
2022-08-29T21:11:58.434Z,1.55
2022-08-29T21:14:27.107Z,0.65
2022-08-29T21:16:56.718Z,1.35
2022-08-29T21:19:26.281Z,0.57
2022-08-29T21:21:53.803Z,3.30
2022-08-29T21:24:20.644Z,1.23
2022-08-29T21:26:47.697Z,0.80
2022-08-29T21:29:14.659Z,1.02
2022-08-29T21:31:41.430Z,0.85
2022-08-29T21:34:10.438Z,0.93
2022-08-29T21:36:38.850Z,1.65
2022-08-29T21:39:08.645Z,1.50
2022-08-29T21:41:39.724Z,4.88
2022-08-29T21:44:07.299Z,3.83
2022-08-29T21:46:37.512Z,0.70
2022-08-29T21:49:06.834Z,1.77
2022-08-29T21:51:34.992Z,0.90
2022-08-29T21:54:02.283Z,1.40
2022-08-29T21:56:30.784Z,2.03
2022-08-29T21:58:58.429Z,2.65
2022-08-29T22:01:29.719Z,2.17
2022-08-29T22:03:58.330Z,1.27
2022-08-29T22:06:27.648Z,1.50
2022-08-29T22:08:55.607Z,3.38
2022-08-29T22:11:37.247Z,1.30
2022-08-29T22:14:06.357Z,3.30
2022-08-29T22:16:33.795Z,1.27
2022-08-29T22:19:08.747Z,1.55
2022-08-29T22:21:45.207Z,0.90
2022-08-29T22:24:13.032Z,4.43
2022-08-29T22:26:41.017Z,0.70
2022-08-29T22:29:11.787Z,1.38
2022-08-29T22:31:39.115Z,0.80
2022-08-29T22:34:09.657Z,0.80
2022-08-29T22:36:36.251Z,0.30
2022-08-29T22:39:03.589Z,0.65
2022-08-29T22:41:30.199Z,1.13
2022-08-29T22:44:31.961Z,2.47
2022-08-29T22:46:45.145Z,0.95
2022-08-29T22:49:12.496Z,4.38
2022-08-29T22:51:39.265Z,3.38
2022-08-29T22:54:24.384Z,1.85
2022-08-29T22:56:54.629Z,1.30
2022-08-29T22:59:22.020Z,1.85
2022-08-29T23:01:49.027Z,0.73
2022-08-29T23:04:15.699Z,1.25
2022-08-29T23:06:42.462Z,0.60
2022-08-29T23:09:09.308Z,0.88
2022-08-29T23:11:36.325Z,1.58
2022-08-29T23:14:04.155Z,1.42
2022-08-29T23:16:31.201Z,1.67
2022-08-29T23:18:57.866Z,0.68
2022-08-29T23:21:24.543Z,2.78
2022-08-29T23:23:51.688Z,1.33
2022-08-29T23:26:19.364Z,0.45
2022-08-29T23:28:46.343Z,1.77
2022-08-29T23:31:14.549Z,2.15
2022-08-29T23:33:41.510Z,2.10
2022-08-29T23:36:08.648Z,1.70
2022-08-29T23:38:35.284Z,1.42
2022-08-29T23:41:02.214Z,0.93
2022-08-29T23:43:30.841Z,1.92
2022-08-29T23:46:04.276Z,2.20
2022-08-29T23:48:31.055Z,0.70
2022-08-29T23:50:58.063Z,0.85
2022-08-29T23:53:24.731Z,0.95
2022-08-29T23:55:51.660Z,1.02
2022-08-29T23:58:18.853Z,2.05
